Time;durP1;ratioP1;P1;durP2;ratioP2;P2;SDS_P1;SDS_P2;PMS_P1;PMS_P2;Temp;Humidity;BMP_temperature;BMP_pressure;BME280_temperature;BME280_humidity;BME280_pressure;Samples;Min_cycle;Max_cycle;Signal;HPM_P1;HPM_P2
2023/05/27 00:01:56;;;;;;;0.50;0.10;;;;;;;9.10;52.75;102568.03;4960348;28;20418;-67
2023/05/27 00:04:23;;;;;;;1.38;0.45;;;;;;;9.04;52.12;102564.44;4960871;28;20137;-67
2023/05/27 00:06:50;;;;;;;2.67;0.40;;;;;;;9.01;52.62;102566.16;4960314;28;20061;-67
2023/05/27 00:09:18;;;;;;;2.58;0.20;;;;;;;8.98;52.94;102568.69;4960586;28;20065;-66
2023/05/27 00:11:45;;;;;;;2.13;0.20;;;;;;;8.95;52.46;102573.00;4954296;28;20050;-67
2023/05/27 00:14:12;;;;;;;0.30;0.10;;;;;;;8.89;52.61;102572.91;4960040;28;20053;-67
2023/05/27 00:16:39;;;;;;;1.48;0.20;;;;;;;8.78;52.81;102564.88;4960496;28;20050;-67
2023/05/27 00:19:06;;;;;;;2.10;0.20;;;;;;;8.85;53.30;102582.41;4958774;28;20069;-67
2023/05/27 00:21:33;;;;;;;4.32;0.47;;;;;;;8.83;52.94;102572.78;4959496;28;20500;-67
2023/05/27 00:24:00;;;;;;;2.05;0.20;;;;;;;8.77;53.15;102579.66;4959609;28;20054;-67
2023/05/27 00:26:28;;;;;;;2.53;0.20;;;;;;;8.76;53.47;102575.25;4957146;28;20172;-67
2023/05/27 00:28:55;;;;;;;1.40;0.20;;;;;;;8.74;53.55;102589.13;4961379;28;21222;-67
2023/05/27 00:31:23;;;;;;;1.95;0.30;;;;;;;8.71;53.70;102587.34;4961859;28;20045;-66
2023/05/27 00:33:50;;;;;;;0.70;0.22;;;;;;;8.69;53.61;102588.16;4970149;28;20410;-67
2023/05/27 00:36:16;;;;;;;1.30;0.10;;;;;;;8.64;53.80;102588.06;4973338;28;20051;-67
2023/05/27 00:38:43;;;;;;;2.45;0.47;;;;;;;8.59;54.15;102578.41;4970549;28;20494;-67
2023/05/27 00:41:12;;;;;;;3.08;0.10;;;;;;;8.60;53.81;102590.63;4971783;28;20569;-67
2023/05/27 00:43:40;;;;;;;0.88;0.20;;;;;;;8.57;54.17;102591.44;4973151;28;20686;-67
2023/05/27 00:46:07;;;;;;;2.80;0.20;;;;;;;8.54;54.29;102591.38;4972669;28;20050;-67
2023/05/27 00:48:34;;;;;;;1.70;0.63;;;;;;;8.50;54.12;102592.16;4968867;28;20065;-67
2023/05/27 00:51:02;;;;;;;1.27;0.20;;;;;;;8.49;54.29;102595.63;4971127;28;20065;-67
2023/05/27 00:53:33;;;;;;;6.13;0.20;;;;;;;8.47;54.31;102605.13;4970653;28;20054;-68
2023/05/27 00:56:01;;;;;;;1.10;0.15;;;;;;;8.44;54.48;102600.72;4971703;28;20061;-68
2023/05/27 00:58:29;;;;;;;7.72;0.30;;;;;;;8.43;54.81;102598.09;4970942;28;20056;-67
2023/05/27 01:00:58;;;;;;;5.30;0.70;;;;;;;8.42;55.34;102604.13;4972804;28;20050;-67
2023/05/27 01:03:25;;;;;;;2.20;0.20;;;;;;;8.36;54.93;102596.19;4968059;28;20449;-67
2023/05/27 01:06:00;;;;;;;1.48;0.17;;;;;;;8.39;55.52;102601.47;4972749;28;20061;-68
2023/05/27 01:08:35;;;;;;;1.83;0.20;;;;;;;8.34;55.59;102594.44;4970539;28;20062;-68
2023/05/27 01:11:05;;;;;;;1.38;0.20;;;;;;;8.36;55.36;102598.78;4971858;28;20499;-67
2023/05/27 01:13:36;;;;;;;2.45;0.20;;;;;;;8.35;55.76;102608.31;4972418;28;20077;-67
2023/05/27 01:16:10;;;;;;;2.83;0.20;;;;;;;8.34;55.93;102609.19;4969250;28;21318;-67
2023/05/27 01:18:40;;;;;;;3.00;0.30;;;;;;;8.34;55.82;102609.19;4971217;28;20054;-67
2023/05/27 01:21:10;;;;;;;1.42;0.20;;;;;;;8.34;56.25;102607.44;4970532;28;20051;-67
2023/05/27 01:23:39;;;;;;;2.67;0.10;;;;;;;8.33;56.17;102616.09;4970034;28;20057;-67
2023/05/27 01:26:06;;;;;;;1.85;0.20;;;;;;;8.34;56.56;102610.06;4971856;28;20088;-67
2023/05/27 01:28:33;;;;;;;5.20;0.63;;;;;;;8.34;56.96;102599.63;4970909;28;20058;-67
2023/05/27 01:31:07;;;;;;;1.27;0.30;;;;;;;8.36;57.20;102609.19;4967893;28;20082;-68
2023/05/27 01:33:37;;;;;;;0.75;0.15;;;;;;;8.38;57.06;102599.69;4965855;28;20064;-68
2023/05/27 01:36:11;;;;;;;1.00;0.20;;;;;;;8.39;57.29;102609.28;4971120;28;20050;-67
2023/05/27 01:38:43;;;;;;;1.95;0.20;;;;;;;8.40;57.52;102598.03;4972381;28;20054;-67
2023/05/27 01:41:11;;;;;;;4.18;0.45;;;;;;;8.41;57.42;102605.88;4970467;28;20054;-67
2023/05/27 01:43:39;;;;;;;3.83;0.20;;;;;;;8.42;57.77;102604.13;4971920;28;20065;-67
2023/05/27 01:46:06;;;;;;;2.35;0.22;;;;;;;8.44;58.08;102602.44;4978895;28;20061;-68
2023/05/27 01:48:33;;;;;;;0.30;0.20;;;;;;;8.46;57.94;102605.97;4977901;28;20054;-67
2023/05/27 01:51:00;;;;;;;0.93;0.10;;;;;;;8.47;58.01;102605.13;4982609;28;20074;-67
2023/05/27 01:53:27;;;;;;;3.08;0.20;;;;;;;8.47;58.43;102605.13;4973580;28;20050;-66
2023/05/27 01:55:55;;;;;;;4.28;0.30;;;;;;;8.50;58.51;102610.38;4972843;28;20055;-67
2023/05/27 01:58:22;;;;;;;3.22;0.10;;;;;;;8.49;58.12;102600.81;4973388;28;20409;-67
2023/05/27 02:00:49;;;;;;;0.57;0.10;;;;;;;8.54;58.45;102607.88;4976630;28;20054;-66
2023/05/27 02:03:16;;;;;;;3.45;1.00;;;;;;;8.55;58.69;102606.16;4973776;28;20056;-66
2023/05/27 02:05:44;;;;;;;1.70;0.30;;;;;;;8.56;58.83;102602.69;4981283;28;20055;-66
2023/05/27 02:08:11;;;;;;;0.45;0.22;;;;;;;8.60;59.01;102611.47;4979484;28;20714;-67
2023/05/27 02:10:38;;;;;;;0.30;0.13;;;;;;;8.61;59.23;102611.47;4982310;28;21458;-66
2023/05/27 02:13:06;;;;;;;3.70;0.40;;;;;;;8.64;59.16;102618.47;4971979;28;21400;-66
2023/05/27 02:15:33;;;;;;;0.82;0.20;;;;;;;8.63;58.97;102612.38;4980878;28;20062;-66
2023/05/27 02:18:00;;;;;;;2.72;0.20;;;;;;;8.67;59.22;102619.41;4980370;28;20501;-67
2023/05/27 02:20:29;;;;;;;2.20;0.20;;;;;;;8.69;59.59;102628.13;4975491;28;20474;-66
2023/05/27 02:22:55;;;;;;;2.33;0.30;;;;;;;8.71;59.68;102628.16;4977450;28;20051;-66
2023/05/27 02:25:22;;;;;;;2.67;0.20;;;;;;;8.73;59.97;102629.94;4986485;28;20402;-66
2023/05/27 02:27:52;;;;;;;7.22;1.33;;;;;;;8.76;59.62;102636.94;4978895;28;20061;-67
2023/05/27 02:30:20;;;;;;;1.02;0.20;;;;;;;8.77;59.94;102634.38;4980344;28;20055;-67
2023/05/27 02:32:47;;;;;;;1.70;0.20;;;;;;;8.81;60.00;102634.41;4977707;28;21900;-66
2023/05/27 02:35:14;;;;;;;0.60;0.20;;;;;;;8.82;60.00;102636.16;4983712;28;20051;-69
2023/05/27 02:37:41;;;;;;;3.92;0.30;;;;;;;8.84;60.21;102634.47;4980451;28;20388;-67
2023/05/27 02:40:10;;;;;;;2.28;0.20;;;;;;;8.87;60.12;102638.00;4974232;28;20057;-67
2023/05/27 02:42:37;;;;;;;3.22;0.20;;;;;;;8.90;60.40;102638.06;4981145;28;20470;-67
2023/05/27 02:45:05;;;;;;;1.48;0.20;;;;;;;8.92;60.55;102631.16;4978471;28;20039;-72
2023/05/27 02:47:34;;;;;;;2.20;0.30;;;;;;;8.94;60.37;102642.50;4982560;28;20522;-71
2023/05/27 02:50:01;;;;;;;4.43;0.30;;;;;;;8.96;60.41;102642.50;4982216;28;20046;-72
2023/05/27 02:52:28;;;;;;;5.65;0.38;;;;;;;8.98;60.54;102638.22;4980429;28;20064;-71
2023/05/27 02:54:55;;;;;;;4.63;0.77;;;;;;;9.00;60.48;102650.41;4976573;28;20054;-71
2023/05/27 02:57:22;;;;;;;3.42;0.30;;;;;;;9.03;60.41;102644.38;4980098;28;20498;-71
2023/05/27 02:59:49;;;;;;;3.05;0.40;;;;;;;9.05;60.31;102653.13;4977528;28;20109;-70
2023/05/27 03:02:15;;;;;;;1.08;0.25;;;;;;;9.07;60.38;102654.00;4978870;28;20133;-71
2023/05/27 03:04:44;;;;;;;2.60;0.30;;;;;;;9.10;60.88;102663.63;4977234;28;20078;-71
2023/05/27 03:07:11;;;;;;;2.40;0.30;;;;;;;9.10;60.56;102669.69;4979289;28;20053;-71
2023/05/27 03:09:37;;;;;;;4.20;0.22;;;;;;;9.14;60.92;102671.53;4980663;28;20079;-71
2023/05/27 03:12:05;;;;;;;7.35;0.60;;;;;;;9.17;61.05;102670.72;4978784;28;20597;-71
2023/05/27 03:14:32;;;;;;;2.25;0.30;;;;;;;9.18;60.88;102670.72;4975597;28;20062;-71
2023/05/27 03:16:59;;;;;;;0.98;0.13;;;;;;;9.20;61.27;102661.19;4982234;28;20053;-71
2023/05/27 03:19:26;;;;;;;5.43;0.30;;;;;;;9.23;60.98;102661.25;4978413;28;20177;-71
2023/05/27 03:21:54;;;;;;;3.35;0.20;;;;;;;9.26;61.36;102656.94;4980503;28;20049;-71
2023/05/27 03:24:21;;;;;;;2.08;0.20;;;;;;;9.29;61.12;102657.00;4984095;28;20051;-71
2023/05/27 03:26:48;;;;;;;3.25;0.30;;;;;;;9.30;61.17;102656.13;4978488;28;20053;-71
2023/05/27 03:29:16;;;;;;;4.43;0.20;;;;;;;9.34;61.30;102653.63;4979997;28;20414;-71
2023/05/27 03:31:43;;;;;;;2.15;0.30;;;;;;;9.37;61.07;102652.78;4979726;28;20050;-71
2023/05/27 03:34:10;;;;;;;1.88;0.22;;;;;;;9.40;61.09;102656.31;4979007;28;20050;-70
2023/05/27 03:36:37;;;;;;;3.33;0.28;;;;;;;9.43;61.65;102647.69;4977723;28;20450;-71
2023/05/27 03:39:05;;;;;;;1.40;0.32;;;;;;;9.48;61.56;102652.94;4977150;28;20046;-71
2023/05/27 03:41:32;;;;;;;1.00;0.17;;;;;;;9.52;61.24;102644.34;4981913;28;20060;-71
2023/05/27 03:43:59;;;;;;;5.18;0.50;;;;;;;9.55;61.30;102650.47;4977771;28;20096;-71
2023/05/27 03:46:26;;;;;;;4.25;0.38;;;;;;;9.58;61.36;102645.28;4976732;28;20054;-72
2023/05/27 03:48:53;;;;;;;2.05;0.30;;;;;;;9.66;60.90;102654.13;4977956;28;20134;-71
2023/05/27 03:51:21;;;;;;;3.05;0.30;;;;;;;9.72;61.04;102665.53;4980771;28;20539;-71
2023/05/27 03:53:48;;;;;;;3.75;0.10;;;;;;;9.78;61.06;102670.81;4980878;28;20050;-71
2023/05/27 03:56:16;;;;;;;1.20;0.20;;;;;;;9.82;60.70;102681.34;4980500;28;20073;-71
2023/05/27 03:58:43;;;;;;;3.50;0.20;;;;;;;9.88;60.95;102676.22;4974853;28;20163;-71
2023/05/27 04:01:11;;;;;;;3.08;0.20;;;;;;;9.94;60.35;102680.66;4974173;28;20047;-72
2023/05/27 04:03:39;;;;;;;2.58;0.20;;;;;;;10.00;60.52;102677.25;4977086;28;20046;-71
2023/05/27 04:06:06;;;;;;;0.68;0.13;;;;;;;10.07;59.98;102684.31;4979067;28;20071;-71
2023/05/27 04:08:35;;;;;;;4.57;0.20;;;;;;;10.12;59.83;102688.72;4971718;28;20057;-71
2023/05/27 04:11:02;;;;;;;2.50;0.10;;;;;;;10.18;59.02;102676.63;4977720;28;20060;-71
2023/05/27 04:13:30;;;;;;;2.40;0.75;;;;;;;10.25;58.48;102675.88;4973846;28;20467;-72
2023/05/27 04:15:59;;;;;;;0.32;0.13;;;;;;;10.30;57.08;102682.03;4977156;28;20047;-71
2023/05/27 04:18:26;;;;;;;0.32;0.10;;;;;;;10.37;57.61;102689.09;4976556;28;20134;-71
2023/05/27 04:20:53;;;;;;;2.50;0.20;;;;;;;10.41;57.74;102683.06;4976804;28;20055;-71
2023/05/27 04:23:20;;;;;;;1.20;0.10;;;;;;;10.45;57.49;102677.03;4977680;28;20495;-71
2023/05/27 04:25:48;;;;;;;1.10;0.10;;;;;;;10.53;56.49;102678.00;4980946;28;20428;-72
2023/05/27 04:28:15;;;;;;;1.65;0.13;;;;;;;10.60;56.59;102673.72;4980165;28;20106;-72
2023/05/27 04:30:45;;;;;;;0.20;0.10;;;;;;;10.66;56.05;102672.91;4975448;28;20063;-72
2023/05/27 04:33:13;;;;;;;3.35;1.00;;;;;;;10.71;55.95;102673.84;4974019;28;20431;-72
2023/05/27 04:35:43;;;;;;;0.85;0.30;;;;;;;10.77;55.39;102672.16;4983081;28;20069;-72
2023/05/27 04:38:15;;;;;;;0.98;0.10;;;;;;;10.82;54.57;102672.22;4975464;28;20065;-72
2023/05/27 04:40:44;;;;;;;1.00;0.10;;;;;;;10.90;55.37;102675.81;4978332;28;20453;-72
2023/05/27 04:43:14;;;;;;;0.40;0.10;;;;;;;10.96;54.26;102675.00;4976227;28;20046;-71
2023/05/27 04:45:43;;;;;;;3.72;1.17;;;;;;;11.02;54.09;102675.06;4979507;28;20050;-71
2023/05/27 04:48:10;;;;;;;2.05;0.20;;;;;;;11.08;53.70;102663.78;4977517;28;20042;-71
2023/05/27 04:50:37;;;;;;;0.95;0.32;;;;;;;11.08;52.94;102659.41;4981603;28;20069;-72
2023/05/27 04:53:04;;;;;;;2.35;0.15;;;;;;;11.25;52.99;102667.44;4978634;28;20061;-71
2023/05/27 04:55:32;;;;;;;1.85;0.25;;;;;;;11.30;52.72;102663.13;4977597;28;20094;-71
2023/05/27 04:58:02;;;;;;;2.40;0.10;;;;;;;11.38;51.80;102671.88;4980029;28;20042;-71
2023/05/27 05:00:38;;;;;;;3.47;0.20;;;;;;;11.45;52.00;102665.84;4976986;28;20142;-72
2023/05/27 05:03:07;;;;;;;3.38;0.10;;;;;;;11.51;52.07;102666.78;4978460;28;20046;-71
2023/05/27 05:05:34;;;;;;;0.40;0.13;;;;;;;11.52;52.10;102652.81;4973947;28;20498;-71
2023/05/27 05:08:01;;;;;;;2.17;0.90;;;;;;;11.67;51.36;102663.41;4979353;28;20050;-72
2023/05/27 05:10:28;;;;;;;0.95;0.22;;;;;;;11.75;51.36;102680.03;4978391;28;20053;-71
2023/05/27 05:12:55;;;;;;;0.68;0.10;;;;;;;11.82;50.69;102678.34;4977151;28;20059;-71
2023/05/27 05:15:22;;;;;;;1.65;0.17;;;;;;;11.89;51.04;102669.69;4980027;28;20619;-71
2023/05/27 05:17:49;;;;;;;0.73;0.10;;;;;;;11.96;50.66;102673.25;4976097;28;20047;-72
2023/05/27 05:20:17;;;;;;;1.13;0.10;;;;;;;12.02;50.75;102666.28;4975386;28;20838;-72
2023/05/27 05:22:44;;;;;;;0.20;0.10;;;;;;;12.10;50.56;102663.72;4975801;28;20043;-72
2023/05/27 05:25:11;;;;;;;3.60;0.15;;;;;;;12.15;50.24;102667.22;4977800;28;20056;-71
2023/05/27 05:27:38;;;;;;;1.38;0.10;;;;;;;12.21;50.36;102672.50;4974765;28;20506;-72
2023/05/27 05:30:06;;;;;;;1.75;0.10;;;;;;;12.27;50.00;102664.66;4976733;28;20504;-73
2023/05/27 05:32:33;;;;;;;0.32;0.10;;;;;;;12.32;49.55;102665.56;4977992;28;20053;-72
2023/05/27 05:35:00;;;;;;;0.20;0.10;;;;;;;12.37;49.82;102671.69;4977554;28;20604;-72
2023/05/27 05:37:28;;;;;;;1.10;0.10;;;;;;;12.43;49.60;102665.59;4979235;28;20061;-72
2023/05/27 05:39:56;;;;;;;1.17;0.30;;;;;;;12.47;49.44;102663.88;4978681;28;20498;-72
2023/05/27 05:42:24;;;;;;;2.05;0.10;;;;;;;12.49;49.87;102668.25;4979685;28;20050;-72
2023/05/27 05:44:52;;;;;;;1.25;0.20;;;;;;;12.54;49.43;102670.88;4980532;28;20093;-73
2023/05/27 05:47:19;;;;;;;2.20;0.10;;;;;;;12.57;50.10;102665.66;4981144;28;20129;-72
2023/05/27 05:49:46;;;;;;;1.83;0.10;;;;;;;12.62;49.64;102669.19;4981901;28;20054;-72
2023/05/27 05:52:13;;;;;;;0.38;0.10;;;;;;;12.66;49.75;102663.06;4978866;28;20054;-72
2023/05/27 05:54:41;;;;;;;2.28;0.10;;;;;;;12.68;49.99;102669.19;4979893;28;20169;-72
2023/05/27 05:57:08;;;;;;;0.30;0.17;;;;;;;12.75;49.55;102676.22;4976513;28;20057;-72
2023/05/27 05:59:35;;;;;;;1.27;0.20;;;;;;;12.78;48.91;102680.59;4983900;28;20384;-72
2023/05/27 06:02:02;;;;;;;0.40;0.10;;;;;;;12.82;48.58;102677.97;4975685;28;20057;-72
2023/05/27 06:04:29;;;;;;;2.28;0.20;;;;;;;12.85;48.70;102676.25;4980661;28;20507;-72
2023/05/27 06:06:55;;;;;;;0.47;0.10;;;;;;;12.89;48.33;102684.09;4981195;28;20046;-72
2023/05/27 06:09:24;;;;;;;0.77;0.10;;;;;;;12.93;48.51;102678.00;4982998;28;20104;-73
2023/05/27 06:11:53;;;;;;;0.47;0.10;;;;;;;12.97;48.58;102681.50;4977888;28;20057;-72
2023/05/27 06:14:20;;;;;;;0.68;0.10;;;;;;;13.01;48.47;102683.28;4980364;28;20128;-72
2023/05/27 06:16:46;;;;;;;0.40;0.10;;;;;;;13.03;48.04;102676.25;4981048;28;20054;-72
2023/05/27 06:19:14;;;;;;;0.10;0.10;;;;;;;13.09;48.12;102684.16;4982956;28;20074;-73
2023/05/27 06:21:41;;;;;;;1.50;0.10;;;;;;;13.10;47.65;102683.28;4977593;28;20078;-72
2023/05/27 06:24:08;;;;;;;1.95;0.10;;;;;;;13.15;47.55;102686.78;4979727;28;20116;-72
2023/05/27 06:26:35;;;;;;;0.25;0.10;;;;;;;13.17;47.64;102685.03;4981464;28;20324;-72
2023/05/27 06:29:04;;;;;;;0.30;0.10;;;;;;;13.23;47.29;102685.06;4975029;28;20617;-73
2023/05/27 06:31:32;;;;;;;1.33;0.20;;;;;;;13.28;46.63;102683.31;4981983;28;20183;-72
2023/05/27 06:33:59;;;;;;;2.40;0.10;;;;;;;13.34;46.83;102690.31;4976775;28;20050;-72
2023/05/27 06:36:26;;;;;;;0.50;0.10;;;;;;;13.37;47.00;102677.19;4978759;28;20605;-72
2023/05/27 06:38:54;;;;;;;1.27;0.20;;;;;;;13.41;46.57;102678.09;4980706;28;20078;-72
2023/05/27 06:41:21;;;;;;;2.63;0.20;;;;;;;13.44;46.89;102684.22;4980725;28;20051;-73
2023/05/27 06:43:48;;;;;;;0.73;0.10;;;;;;;13.49;46.36;102689.47;4981510;28;20457;-73
2023/05/27 06:46:16;;;;;;;0.38;0.10;;;;;;;13.53;47.02;102688.59;4983757;28;20069;-72
2023/05/27 06:48:43;;;;;;;1.35;0.10;;;;;;;13.60;47.05;102684.19;4979482;28;20053;-72
2023/05/27 06:51:12;;;;;;;1.42;0.10;;;;;;;13.67;46.78;102691.22;4980240;28;20054;-72
2023/05/27 06:53:39;;;;;;;0.88;0.10;;;;;;;13.73;46.84;102689.44;4980723;28;20050;-72
2023/05/27 06:56:06;;;;;;;0.75;0.08;;;;;;;13.84;46.77;102694.69;4980372;28;20050;-71
2023/05/27 06:58:33;;;;;;;5.35;0.20;;;;;;;13.93;46.47;102693.81;4978909;28;20074;-73
2023/05/27 07:01:00;;;;;;;1.95;0.10;;;;;;;14.03;46.54;102698.19;4979058;28;20133;-72
2023/05/27 07:03:29;;;;;;;1.60;0.10;;;;;;;14.10;46.33;102692.00;4970737;28;20054;-72
2023/05/27 07:05:56;;;;;;;0.95;0.10;;;;;;;14.22;46.48;102693.72;4980524;28;20053;-72
2023/05/27 07:08:22;;;;;;;0.57;0.10;;;;;;;14.32;45.61;102692.84;4985433;28;20557;-73
2023/05/27 07:10:50;;;;;;;1.13;0.10;;;;;;;14.42;44.91;102687.53;4979137;28;20043;-72
2023/05/27 07:13:17;;;;;;;1.05;0.10;;;;;;;14.53;44.41;102686.63;4976827;28;20054;-71
2023/05/27 07:15:44;;;;;;;0.85;0.10;;;;;;;14.67;43.59;102688.34;4978859;28;20581;-72
2023/05/27 07:18:11;;;;;;;0.85;0.10;;;;;;;14.78;43.44;102686.53;4978689;28;20073;-73
2023/05/27 07:20:40;;;;;;;3.58;0.10;;;;;;;14.87;42.58;102678.56;4980130;28;20363;-72
2023/05/27 07:23:07;;;;;;;3.17;0.40;;;;;;;14.95;42.66;102682.03;4982587;28;20744;-72
2023/05/27 07:25:34;;;;;;;0.55;0.10;;;;;;;15.04;42.71;102674.06;4980709;28;20515;-72
2023/05/27 07:28:01;;;;;;;0.28;0.10;;;;;;;15.15;42.70;102670.50;4978494;28;20414;-72
2023/05/27 07:30:28;;;;;;;0.98;0.10;;;;;;;15.29;41.99;102658.97;4978066;28;20498;-72
2023/05/27 07:32:55;;;;;;;0.22;0.10;;;;;;;15.39;41.57;102649.22;4979396;28;20042;-72
2023/05/27 07:35:22;;;;;;;1.00;0.10;;;;;;;15.54;41.00;102656.16;4973062;28;20526;-73
2023/05/27 07:37:50;;;;;;;1.70;0.10;;;;;;;15.64;40.94;102646.38;4976649;28;20048;-73
2023/05/27 07:40:17;;;;;;;0.82;0.10;;;;;;;15.76;40.38;102651.56;4980243;28;20038;-73
2023/05/27 07:42:44;;;;;;;4.88;0.10;;;;;;;15.89;39.99;102650.56;4976435;28;20050;-73
2023/05/27 07:45:12;;;;;;;2.55;0.00;;;;;;;15.94;39.91;102637.34;4975270;28;20042;-73
2023/05/27 07:47:38;;;;;;;1.15;0.10;;;;;;;16.10;39.06;102659.09;4981501;28;20053;-72
2023/05/27 07:50:07;;;;;;;1.08;0.00;;;;;;;16.12;38.51;102650.28;4983596;28;20046;-73
2023/05/27 07:52:34;;;;;;;2.10;0.10;;;;;;;16.27;38.54;102656.28;4976446;28;20094;-73
2023/05/27 07:55:02;;;;;;;1.45;0.10;;;;;;;16.35;38.56;102659.69;4974598;28;20054;-74
2023/05/27 07:57:29;;;;;;;0.88;0.00;;;;;;;16.37;38.48;102656.16;4979928;28;20070;-73
2023/05/27 07:59:56;;;;;;;0.20;0.10;;;;;;;16.41;38.42;102660.47;4976531;28;20506;-74
2023/05/27 08:02:23;;;;;;;0.75;0.20;;;;;;;16.40;38.27;102650.84;4979991;28;20050;-73
2023/05/27 08:04:50;;;;;;;3.20;0.10;;;;;;;16.49;38.15;102641.06;4977886;28;20054;-72
2023/05/27 08:07:17;;;;;;;0.90;0.10;;;;;;;16.48;36.67;102647.19;4977308;28;20498;-73
2023/05/27 08:09:44;;;;;;;0.60;0.10;;;;;;;16.45;37.03;102655.16;4974907;28;20081;-72
2023/05/27 08:12:13;;;;;;;0.80;0.10;;;;;;;16.46;36.63;102643.72;4977557;28;20043;-72
2023/05/27 08:14:40;;;;;;;1.10;0.10;;;;;;;16.47;36.90;102643.69;4974453;28;20558;-72
2023/05/27 08:17:07;;;;;;;0.98;0.20;;;;;;;16.47;36.67;102642.84;4977630;28;20053;-73
2023/05/27 08:19:34;;;;;;;1.85;0.10;;;;;;;16.50;36.61;102648.06;4975222;28;20054;-72
2023/05/27 08:22:03;;;;;;;1.75;0.00;;;;;;;16.52;36.91;102638.38;4972467;28;20057;-73
2023/05/27 08:24:32;;;;;;;0.38;0.10;;;;;;;16.57;36.81;102642.69;4973797;28;20578;-72
2023/05/27 08:26:58;;;;;;;0.88;0.00;;;;;;;16.60;37.16;102641.78;4976881;28;20082;-72
2023/05/27 08:29:27;;;;;;;0.40;0.00;;;;;;;16.58;36.78;102647.06;4976814;28;20095;-72
2023/05/27 08:31:54;;;;;;;0.60;0.00;;;;;;;16.56;36.72;102653.25;4975055;28;20051;-74
2023/05/27 08:34:21;;;;;;;0.70;0.08;;;;;;;16.52;36.82;102649.78;4980156;28;20052;-73
2023/05/27 08:36:48;;;;;;;1.90;0.10;;;;;;;16.51;36.71;102644.56;4975185;28;20058;-72
2023/05/27 08:39:16;;;;;;;0.20;0.10;;;;;;;16.46;36.13;102643.72;4976206;28;20047;-73
2023/05/27 08:41:43;;;;;;;0.95;0.10;;;;;;;16.44;37.01;102649.00;4977999;28;20081;-73
2023/05/27 08:44:10;;;;;;;0.20;0.08;;;;;;;16.46;36.61;102646.38;4982351;28;20107;-73
2023/05/27 08:46:38;;;;;;;1.30;0.10;;;;;;;16.46;36.27;102638.47;4976460;28;20051;-73
2023/05/27 08:49:07;;;;;;;0.93;0.10;;;;;;;16.40;36.41;102635.00;4976497;28;20042;-72
2023/05/27 08:51:39;;;;;;;1.85;0.10;;;;;;;16.40;35.84;102637.63;4978136;28;20078;-72
2023/05/27 08:54:07;;;;;;;2.85;0.10;;;;;;;16.36;35.37;102641.22;4977958;28;20129;-73
2023/05/27 08:56:35;;;;;;;0.55;0.00;;;;;;;16.30;35.43;102641.28;4972101;28;20050;-73
2023/05/27 08:59:02;;;;;;;2.90;0.13;;;;;;;16.32;35.32;102641.28;4980114;28;20663;-73
2023/05/27 09:01:30;;;;;;;1.75;0.10;;;;;;;16.33;35.66;102641.22;4977115;28;20129;-73
2023/05/27 09:03:59;;;;;;;0.17;0.03;;;;;;;16.34;36.05;102636.84;4973108;28;20061;-72
2023/05/27 09:06:26;;;;;;;0.57;0.10;;;;;;;16.29;36.18;102615.81;4977402;28;20057;-73
2023/05/27 09:08:53;;;;;;;0.80;0.03;;;;;;;16.28;36.33;102621.97;4979660;28;20079;-72
2023/05/27 09:11:22;;;;;;;0.63;0.10;;;;;;;16.28;36.31;102610.53;4974238;28;20050;-72
2023/05/27 09:13:49;;;;;;;0.40;0.10;;;;;;;16.31;36.35;102613.16;4974165;28;20471;-73
2023/05/27 09:16:21;;;;;;;0.98;0.10;;;;;;;16.27;36.78;102599.13;4978956;28;20058;-74
2023/05/27 09:18:48;;;;;;;0.50;0.05;;;;;;;16.26;37.21;102613.22;4977575;28;20142;-73
2023/05/27 09:21:17;;;;;;;1.65;0.13;;;;;;;16.19;36.52;102595.72;4975699;28;20129;-72
2023/05/27 09:23:44;;;;;;;0.28;0.10;;;;;;;16.23;37.14;102612.38;4984191;28;20549;-72
2023/05/27 09:26:11;;;;;;;0.50;0.10;;;;;;;16.23;37.14;102602.72;4975124;28;20487;-73
2023/05/27 09:28:39;;;;;;;0.25;0.10;;;;;;;16.25;36.99;102605.31;4981731;28;20049;-73
2023/05/27 09:31:07;;;;;;;0.88;0.10;;;;;;;16.25;36.82;102606.22;4974633;28;20133;-74
2023/05/27 09:33:38;;;;;;;1.25;0.10;;;;;;;16.23;37.07;102597.44;4975858;28;20057;-73
2023/05/27 09:36:05;;;;;;;0.25;0.05;;;;;;;16.26;37.29;102602.66;4976991;28;20122;-72
2023/05/27 09:38:35;;;;;;;2.47;0.20;;;;;;;16.16;37.02;102577.28;4979098;28;20082;-73
2023/05/27 09:41:03;;;;;;;1.70;0.10;;;;;;;16.24;37.25;102596.53;4976637;28;20482;-73
2023/05/27 09:43:31;;;;;;;0.75;0.10;;;;;;;16.24;37.57;102598.31;4976297;28;20057;-73
2023/05/27 09:46:01;;;;;;;0.28;0.10;;;;;;;16.20;37.93;102584.28;4976363;28;20049;-73
2023/05/27 09:48:31;;;;;;;1.85;0.10;;;;;;;16.19;38.19;102593.97;4978166;28;20043;-73
2023/05/27 09:50:59;;;;;;;1.20;0.10;;;;;;;16.13;38.64;102591.38;4975665;28;20046;-73
2023/05/27 09:53:27;;;;;;;0.93;0.10;;;;;;;16.18;38.53;102594.84;4978261;28;20054;-72
2023/05/27 09:55:57;;;;;;;3.22;0.20;;;;;;;16.18;39.20;102596.63;4978168;28;20533;-72
2023/05/27 09:58:25;;;;;;;0.38;0.10;;;;;;;16.17;39.17;102581.69;4974575;28;20122;-74
2023/05/27 10:00:56;;;;;;;2.00;0.10;;;;;;;16.14;39.49;102581.75;4979514;28;20057;-73
2023/05/27 10:03:24;;;;;;;0.82;0.10;;;;;;;16.10;39.65;102574.75;4972655;28;20133;-73
2023/05/27 10:05:52;;;;;;;0.75;0.10;;;;;;;16.09;39.85;102573.88;4980021;28;20055;-73
2023/05/27 10:08:20;;;;;;;0.98;0.20;;;;;;;16.06;40.11;102570.41;4973824;28;20050;-73
2023/05/27 10:10:47;;;;;;;0.95;0.10;;;;;;;16.03;40.11;102562.56;4973575;28;20054;-73
2023/05/27 10:13:17;;;;;;;1.05;0.10;;;;;;;15.98;40.33;102554.69;4978466;28;20054;-73
2023/05/27 10:15:49;;;;;;;0.68;0.10;;;;;;;15.95;40.26;102555.59;4975019;28;20066;-73
2023/05/27 10:18:23;;;;;;;2.22;0.10;;;;;;;15.87;40.78;102540.78;4972289;28;20051;-74
2023/05/27 10:20:51;;;;;;;1.65;0.00;;;;;;;15.89;40.67;102539.88;4976061;28;20055;-73
2023/05/27 10:23:21;;;;;;;0.73;0.10;;;;;;;15.90;40.90;102548.63;4977840;28;20141;-73
2023/05/27 10:25:50;;;;;;;2.40;0.20;;;;;;;15.86;40.73;102539.03;4978242;28;20483;-72
2023/05/27 10:28:31;;;;;;;1.98;0.10;;;;;;;15.82;40.87;102535.53;4980766;28;20054;-72
2023/05/27 10:31:08;;;;;;;2.85;0.10;;;;;;;15.77;41.18;102529.47;4983474;28;20129;-74
2023/05/27 10:33:37;;;;;;;0.63;0.10;;;;;;;15.76;41.59;102522.44;4978460;28;20066;-73
2023/05/27 10:36:08;;;;;;;3.67;0.47;;;;;;;15.76;41.24;102519.81;4981027;28;20471;-73
2023/05/27 10:38:35;;;;;;;1.67;0.13;;;;;;;15.76;41.41;102522.44;4981530;28;20052;-72
2023/05/27 10:41:04;;;;;;;0.93;0.08;;;;;;;15.75;41.56;102520.72;4981524;28;20055;-74
2023/05/27 10:43:35;;;;;;;1.55;0.30;;;;;;;15.76;41.68;102517.19;4978857;28;20507;-72
2023/05/27 10:46:03;;;;;;;1.65;0.10;;;;;;;15.63;41.92;102489.22;4982139;28;20046;-73
2023/05/27 10:48:32;;;;;;;0.70;0.10;;;;;;;15.78;41.98;102507.50;4981024;28;20046;-73
2023/05/27 10:50:59;;;;;;;2.00;0.08;;;;;;;15.78;42.06;102496.97;4982631;28;20424;-73
2023/05/27 10:53:28;;;;;;;1.90;0.20;;;;;;;15.79;42.13;102500.47;4982217;28;20054;-73
2023/05/27 10:55:58;;;;;;;3.00;0.20;;;;;;;15.76;42.39;102492.59;4974990;28;20148;-74
2023/05/27 10:58:25;;;;;;;3.35;0.20;;;;;;;15.81;42.44;102496.06;4978933;28;20141;-73
2023/05/27 11:00:56;;;;;;;1.40;0.10;;;;;;;15.83;42.72;102497.78;4977931;28;20479;-73
2023/05/27 11:03:25;;;;;;;1.10;0.10;;;;;;;15.83;42.88;102497.78;4977936;28;20086;-73
2023/05/27 11:06:02;;;;;;;1.20;0.10;;;;;;;15.84;43.07;102491.59;4979031;28;20053;-73
2023/05/27 11:08:29;;;;;;;3.83;0.10;;;;;;;15.85;43.15;102485.47;4978187;28;20050;-73
2023/05/27 11:11:00;;;;;;;0.60;0.10;;;;;;;15.83;43.13;102487.25;4980651;28;20101;-72
2023/05/27 11:13:34;;;;;;;1.65;0.20;;;;;;;15.83;43.56;102486.38;4980051;28;20046;-72
2023/05/27 11:16:04;;;;;;;1.67;0.65;;;;;;;15.81;43.48;102488.16;4980088;28;20068;-72
2023/05/27 11:18:38;;;;;;;0.88;0.10;;;;;;;15.79;43.83;102480.25;4979522;28;20467;-73
2023/05/27 11:21:05;;;;;;;1.17;0.55;;;;;;;15.77;44.16;102484.69;4973068;28;20410;-72
2023/05/27 11:23:37;;;;;;;2.60;0.10;;;;;;;15.74;44.28;102485.59;4980366;28;20057;-72
2023/05/27 11:26:04;;;;;;;0.70;0.20;;;;;;;15.77;44.40;102482.06;4978876;28;20046;-73
2023/05/27 11:28:31;;;;;;;1.15;0.17;;;;;;;15.79;44.31;102474.13;4980812;28;20046;-73
2023/05/27 11:31:05;;;;;;;3.13;0.15;;;;;;;15.80;44.00;102476.75;4976075;28;20053;-73
2023/05/27 11:33:33;;;;;;;6.70;0.10;;;;;;;15.79;44.13;102460.94;4982343;28;20831;-72